sensor_id;sensor_type;location;lat;lon;timestamp;temperature;humidity
11246;DHT22;59870;50.106;8.580;2022-11-15T00:01:57;13.20;95.30
11246;DHT22;59870;50.106;8.580;2022-11-15T00:04:43;13.10;95.40
11246;DHT22;59870;50.106;8.580;2022-11-15T00:07:29;13.10;95.60
11246;DHT22;59870;50.106;8.580;2022-11-15T00:10:36;13.00;95.80
11246;DHT22;59870;50.106;8.580;2022-11-15T00:13:22;13.00;96.00
11246;DHT22;59870;50.106;8.580;2022-11-15T00:16:09;13.00;96.10
11246;DHT22;59870;50.106;8.580;2022-11-15T00:18:56;12.90;96.10
11246;DHT22;59870;50.106;8.580;2022-11-15T00:21:43;12.90;96.10
11246;DHT22;59870;50.106;8.580;2022-11-15T00:24:29;12.90;96.20
11246;DHT22;59870;50.106;8.580;2022-11-15T00:27:15;12.90;96.30
11246;DHT22;59870;50.106;8.580;2022-11-15T00:30:01;12.80;96.50
11246;DHT22;59870;50.106;8.580;2022-11-15T00:32:48;12.80;96.50
11246;DHT22;59870;50.106;8.580;2022-11-15T00:35:34;12.80;96.60
11246;DHT22;59870;50.106;8.580;2022-11-15T00:38:20;12.80;96.70
11246;DHT22;59870;50.106;8.580;2022-11-15T00:41:07;12.70;96.70
11246;DHT22;59870;50.106;8.580;2022-11-15T00:43:54;12.70;96.80
11246;DHT22;59870;50.106;8.580;2022-11-15T00:46:41;12.70;96.70
11246;DHT22;59870;50.106;8.580;2022-11-15T00:49:27;12.70;96.80
11246;DHT22;59870;50.106;8.580;2022-11-15T00:52:13;12.70;96.80
11246;DHT22;59870;50.106;8.580;2022-11-15T00:54:59;13.00;97.00
11246;DHT22;59870;50.106;8.580;2022-11-15T00:57:46;12.70;96.80
11246;DHT22;59870;50.106;8.580;2022-11-15T01:00:32;12.70;96.90
11246;DHT22;59870;50.106;8.580;2022-11-15T01:03:18;12.70;96.90
11246;DHT22;59870;50.106;8.580;2022-11-15T01:06:06;12.70;96.90
11246;DHT22;59870;50.106;8.580;2022-11-15T01:08:52;12.80;97.10
11246;DHT22;59870;50.106;8.580;2022-11-15T01:11:39;12.80;97.00
11246;DHT22;59870;50.106;8.580;2022-11-15T01:14:25;12.80;97.00
11246;DHT22;59870;50.106;8.580;2022-11-15T01:17:11;12.80;97.00
11246;DHT22;59870;50.106;8.580;2022-11-15T01:19:57;12.80;97.00
11246;DHT22;59870;50.106;8.580;2022-11-15T01:22:43;12.80;97.00
11246;DHT22;59870;50.106;8.580;2022-11-15T01:25:29;12.80;97.00
11246;DHT22;59870;50.106;8.580;2022-11-15T01:28:15;12.80;96.80
11246;DHT22;59870;50.106;8.580;2022-11-15T01:31:02;12.80;96.70
11246;DHT22;59870;50.106;8.580;2022-11-15T01:33:48;12.80;96.60
11246;DHT22;59870;50.106;8.580;2022-11-15T01:36:35;12.80;96.60
11246;DHT22;59870;50.106;8.580;2022-11-15T01:39:21;12.80;96.60
11246;DHT22;59870;50.106;8.580;2022-11-15T01:42:12;12.80;96.50
11246;DHT22;59870;50.106;8.580;2022-11-15T01:44:58;12.70;96.60
11246;DHT22;59870;50.106;8.580;2022-11-15T01:47:52;12.70;96.60
11246;DHT22;59870;50.106;8.580;2022-11-15T01:50:39;12.70;96.70
11246;DHT22;59870;50.106;8.580;2022-11-15T01:53:26;12.60;96.70
11246;DHT22;59870;50.106;8.580;2022-11-15T01:56:20;12.60;96.90
11246;DHT22;59870;50.106;8.580;2022-11-15T01:59:08;12.60;96.90
11246;DHT22;59870;50.106;8.580;2022-11-15T02:01:55;12.60;96.90
11246;DHT22;59870;50.106;8.580;2022-11-15T02:04:46;12.50;96.80
11246;DHT22;59870;50.106;8.580;2022-11-15T02:07:34;12.60;96.90
11246;DHT22;59870;50.106;8.580;2022-11-15T02:10:23;12.60;96.90
11246;DHT22;59870;50.106;8.580;2022-11-15T02:13:10;12.60;97.00
11246;DHT22;59870;50.106;8.580;2022-11-15T02:16:05;12.60;97.20
11246;DHT22;59870;50.106;8.580;2022-11-15T02:25:40;12.60;97.70
11246;DHT22;59870;50.106;8.580;2022-11-15T02:31:55;12.60;97.80
11246;DHT22;59870;50.106;8.580;2022-11-15T02:35:02;12.60;97.90
11246;DHT22;59870;50.106;8.580;2022-11-15T02:38:01;12.70;97.80
11246;DHT22;59870;50.106;8.580;2022-11-15T02:41:04;12.70;97.80
11246;DHT22;59870;50.106;8.580;2022-11-15T02:44:00;12.70;97.80
11246;DHT22;59870;50.106;8.580;2022-11-15T02:49:59;12.70;97.80
11246;DHT22;59870;50.106;8.580;2022-11-15T02:52:48;12.70;97.80
11246;DHT22;59870;50.106;8.580;2022-11-15T02:55:37;12.70;97.80
11246;DHT22;59870;50.106;8.580;2022-11-15T03:01:46;12.80;97.80
11246;DHT22;59870;50.106;8.580;2022-11-15T03:04:48;12.70;97.70
11246;DHT22;59870;50.106;8.580;2022-11-15T03:16:36;12.80;97.60
11246;DHT22;59870;50.106;8.580;2022-11-15T03:19:35;12.80;97.70
11246;DHT22;59870;50.106;8.580;2022-11-15T03:22:27;12.80;97.80
11246;DHT22;59870;50.106;8.580;2022-11-15T03:25:19;12.80;97.80
11246;DHT22;59870;50.106;8.580;2022-11-15T03:28:09;12.70;97.70
11246;DHT22;59870;50.106;8.580;2022-11-15T03:30:57;12.70;97.70
11246;DHT22;59870;50.106;8.580;2022-11-15T03:33:44;12.70;97.80
11246;DHT22;59870;50.106;8.580;2022-11-15T03:36:32;12.80;97.80
11246;DHT22;59870;50.106;8.580;2022-11-15T03:39:20;12.70;97.90
11246;DHT22;59870;50.106;8.580;2022-11-15T03:42:23;12.80;98.00
11246;DHT22;59870;50.106;8.580;2022-11-15T03:48:39;12.80;98.00
11246;DHT22;59870;50.106;8.580;2022-11-15T03:51:29;12.80;98.00
11246;DHT22;59870;50.106;8.580;2022-11-15T03:54:15;12.80;98.00
11246;DHT22;59870;50.106;8.580;2022-11-15T03:57:02;12.80;98.00
11246;DHT22;59870;50.106;8.580;2022-11-15T03:59:48;12.80;98.10
11246;DHT22;59870;50.106;8.580;2022-11-15T04:02:34;12.80;98.00
11246;DHT22;59870;50.106;8.580;2022-11-15T04:05:20;12.80;98.00
11246;DHT22;59870;50.106;8.580;2022-11-15T04:08:07;12.80;98.00
11246;DHT22;59870;50.106;8.580;2022-11-15T04:10:53;12.80;98.10
11246;DHT22;59870;50.106;8.580;2022-11-15T04:13:39;12.80;98.20
11246;DHT22;59870;50.106;8.580;2022-11-15T04:16:25;12.80;98.20
11246;DHT22;59870;50.106;8.580;2022-11-15T04:19:11;12.80;98.30
11246;DHT22;59870;50.106;8.580;2022-11-15T04:22:16;12.80;98.30
11246;DHT22;59870;50.106;8.580;2022-11-15T04:25:21;12.90;98.40
11246;DHT22;59870;50.106;8.580;2022-11-15T04:28:12;12.90;98.40
11246;DHT22;59870;50.106;8.580;2022-11-15T04:30:58;12.80;98.40
11246;DHT22;59870;50.106;8.580;2022-11-15T04:33:44;12.90;98.40
11246;DHT22;59870;50.106;8.580;2022-11-15T04:36:30;12.90;98.40
11246;DHT22;59870;50.106;8.580;2022-11-15T04:39:35;12.90;98.50
11246;DHT22;59870;50.106;8.580;2022-11-15T04:42:21;12.90;98.40
11246;DHT22;59870;50.106;8.580;2022-11-15T04:45:07;12.90;98.40
11246;DHT22;59870;50.106;8.580;2022-11-15T04:47:53;13.00;98.40
11246;DHT22;59870;50.106;8.580;2022-11-15T04:50:39;13.00;98.50
11246;DHT22;59870;50.106;8.580;2022-11-15T04:53:25;13.00;98.50
11246;DHT22;59870;50.106;8.580;2022-11-15T04:56:11;13.00;98.50
11246;DHT22;59870;50.106;8.580;2022-11-15T04:58:58;13.00;98.50
11246;DHT22;59870;50.106;8.580;2022-11-15T05:01:44;13.00;98.50
11246;DHT22;59870;50.106;8.580;2022-11-15T05:04:30;13.00;98.50
11246;DHT22;59870;50.106;8.580;2022-11-15T05:07:16;13.00;98.50
11246;DHT22;59870;50.106;8.580;2022-11-15T05:10:02;13.00;98.50
11246;DHT22;59870;50.106;8.580;2022-11-15T05:12:48;13.10;98.50
11246;DHT22;59870;50.106;8.580;2022-11-15T05:15:34;13.10;98.50
11246;DHT22;59870;50.106;8.580;2022-11-15T05:18:20;13.10;98.50
11246;DHT22;59870;50.106;8.580;2022-11-15T05:21:13;13.10;98.60
11246;DHT22;59870;50.106;8.580;2022-11-15T05:24:00;13.10;98.60
11246;DHT22;59870;50.106;8.580;2022-11-15T05:26:46;13.10;98.50
11246;DHT22;59870;50.106;8.580;2022-11-15T05:29:32;13.10;98.50
11246;DHT22;59870;50.106;8.580;2022-11-15T05:32:18;13.20;98.50
11246;DHT22;59870;50.106;8.580;2022-11-15T05:35:07;13.20;98.50
11246;DHT22;59870;50.106;8.580;2022-11-15T05:37:55;13.10;98.70
11246;DHT22;59870;50.106;8.580;2022-11-15T05:40:42;13.10;98.50
11246;DHT22;59870;50.106;8.580;2022-11-15T05:43:31;13.20;98.50
11246;DHT22;59870;50.106;8.580;2022-11-15T05:46:19;13.20;98.50
11246;DHT22;59870;50.106;8.580;2022-11-15T05:49:07;13.20;98.50
11246;DHT22;59870;50.106;8.580;2022-11-15T05:51:55;13.20;98.50
11246;DHT22;59870;50.106;8.580;2022-11-15T05:54:42;13.20;98.50
11246;DHT22;59870;50.106;8.580;2022-11-15T05:57:28;13.20;98.50
11246;DHT22;59870;50.106;8.580;2022-11-15T06:00:14;13.30;98.50
11246;DHT22;59870;50.106;8.580;2022-11-15T06:03:00;13.30;98.40
11246;DHT22;59870;50.106;8.580;2022-11-15T06:05:46;13.20;98.40
11246;DHT22;59870;50.106;8.580;2022-11-15T06:08:32;13.30;98.40
11246;DHT22;59870;50.106;8.580;2022-11-15T06:11:18;13.30;98.40
11246;DHT22;59870;50.106;8.580;2022-11-15T06:14:04;13.30;98.40
11246;DHT22;59870;50.106;8.580;2022-11-15T06:16:50;13.30;98.40
11246;DHT22;59870;50.106;8.580;2022-11-15T06:19:36;13.30;98.40
11246;DHT22;59870;50.106;8.580;2022-11-15T06:22:22;13.30;98.40
11246;DHT22;59870;50.106;8.580;2022-11-15T06:25:08;13.30;98.50
11246;DHT22;59870;50.106;8.580;2022-11-15T06:27:55;13.30;98.50
11246;DHT22;59870;50.106;8.580;2022-11-15T06:30:41;13.30;98.50
11246;DHT22;59870;50.106;8.580;2022-11-15T06:33:27;13.30;98.50
11246;DHT22;59870;50.106;8.580;2022-11-15T06:36:14;13.40;98.60
11246;DHT22;59870;50.106;8.580;2022-11-15T06:39:04;13.30;98.50
11246;DHT22;59870;50.106;8.580;2022-11-15T06:41:50;13.30;98.60
11246;DHT22;59870;50.106;8.580;2022-11-15T06:44:36;13.40;98.70
11246;DHT22;59870;50.106;8.580;2022-11-15T06:47:22;13.40;98.70
11246;DHT22;59870;50.106;8.580;2022-11-15T06:50:08;13.30;98.60
11246;DHT22;59870;50.106;8.580;2022-11-15T06:52:54;13.40;98.70
11246;DHT22;59870;50.106;8.580;2022-11-15T06:55:40;13.40;98.80
11246;DHT22;59870;50.106;8.580;2022-11-15T06:58:27;13.40;98.90
11246;DHT22;59870;50.106;8.580;2022-11-15T07:01:12;13.40;98.90
11246;DHT22;59870;50.106;8.580;2022-11-15T07:03:59;13.40;98.80
11246;DHT22;59870;50.106;8.580;2022-11-15T07:06:46;13.40;98.80
11246;DHT22;59870;50.106;8.580;2022-11-15T07:09:33;13.80;99.10
11246;DHT22;59870;50.106;8.580;2022-11-15T07:12:19;13.50;98.90
11246;DHT22;59870;50.106;8.580;2022-11-15T07:15:06;13.50;99.20
11246;DHT22;59870;50.106;8.580;2022-11-15T07:17:52;13.50;99.00
11246;DHT22;59870;50.106;8.580;2022-11-15T07:20:38;13.60;99.00
11246;DHT22;59870;50.106;8.580;2022-11-15T07:23:25;13.60;99.10
11246;DHT22;59870;50.106;8.580;2022-11-15T07:26:10;13.60;99.50
11246;DHT22;59870;50.106;8.580;2022-11-15T07:28:57;13.70;99.30
11246;DHT22;59870;50.106;8.580;2022-11-15T07:31:43;13.70;99.20
11246;DHT22;59870;50.106;8.580;2022-11-15T07:34:29;13.80;99.30
11246;DHT22;59870;50.106;8.580;2022-11-15T07:37:15;13.80;99.20
11246;DHT22;59870;50.106;8.580;2022-11-15T07:40:02;13.90;99.20
11246;DHT22;59870;50.106;8.580;2022-11-15T07:42:48;13.90;99.10
11246;DHT22;59870;50.106;8.580;2022-11-15T07:45:43;13.90;99.10
11246;DHT22;59870;50.106;8.580;2022-11-15T07:48:29;14.00;99.20
11246;DHT22;59870;50.106;8.580;2022-11-15T07:51:29;14.00;99.30
11246;DHT22;59870;50.106;8.580;2022-11-15T07:54:15;14.00;99.30
11246;DHT22;59870;50.106;8.580;2022-11-15T07:57:01;14.00;99.40
11246;DHT22;59870;50.106;8.580;2022-11-15T07:59:52;14.10;99.50
11246;DHT22;59870;50.106;8.580;2022-11-15T08:02:38;14.10;99.50
11246;DHT22;59870;50.106;8.580;2022-11-15T08:05:25;14.20;99.60
11246;DHT22;59870;50.106;8.580;2022-11-15T08:08:11;14.20;99.50
11246;DHT22;59870;50.106;8.580;2022-11-15T08:11:00;14.20;99.50
11246;DHT22;59870;50.106;8.580;2022-11-15T08:13:46;14.30;99.50
11246;DHT22;59870;50.106;8.580;2022-11-15T08:16:32;14.30;99.40
11246;DHT22;59870;50.106;8.580;2022-11-15T08:19:18;14.40;99.50
11246;DHT22;59870;50.106;8.580;2022-11-15T08:22:05;14.40;99.30
11246;DHT22;59870;50.106;8.580;2022-11-15T08:24:51;14.60;99.40
11246;DHT22;59870;50.106;8.580;2022-11-15T08:27:37;14.50;99.10
11246;DHT22;59870;50.106;8.580;2022-11-15T08:30:23;14.60;99.10
11246;DHT22;59870;50.106;8.580;2022-11-15T08:33:12;14.60;98.90
11246;DHT22;59870;50.106;8.580;2022-11-15T08:36:01;14.70;98.90
11246;DHT22;59870;50.106;8.580;2022-11-15T08:38:47;14.70;98.90
11246;DHT22;59870;50.106;8.580;2022-11-15T08:41:36;14.70;98.80
11246;DHT22;59870;50.106;8.580;2022-11-15T08:44:23;14.80;98.80
11246;DHT22;59870;50.106;8.580;2022-11-15T08:47:11;15.10;99.20
11246;DHT22;59870;50.106;8.580;2022-11-15T08:49:58;14.80;99.00
11246;DHT22;59870;50.106;8.580;2022-11-15T08:52:44;14.80;98.90
11246;DHT22;59870;50.106;8.580;2022-11-15T08:55:30;14.90;98.80
11246;DHT22;59870;50.106;8.580;2022-11-15T08:58:16;14.90;98.80
11246;DHT22;59870;50.106;8.580;2022-11-15T09:01:03;15.00;99.00
11246;DHT22;59870;50.106;8.580;2022-11-15T09:03:49;15.00;99.00
11246;DHT22;59870;50.106;8.580;2022-11-15T09:06:35;15.00;98.60
11246;DHT22;59870;50.106;8.580;2022-11-15T09:09:27;15.10;98.60
11246;DHT22;59870;50.106;8.580;2022-11-15T09:12:12;15.10;98.30
11246;DHT22;59870;50.106;8.580;2022-11-15T09:14:58;15.10;98.30
11246;DHT22;59870;50.106;8.580;2022-11-15T09:17:45;15.10;98.20
11246;DHT22;59870;50.106;8.580;2022-11-15T09:20:31;15.20;98.40
11246;DHT22;59870;50.106;8.580;2022-11-15T09:23:17;15.20;98.10
11246;DHT22;59870;50.106;8.580;2022-11-15T09:26:04;15.20;98.20
11246;DHT22;59870;50.106;8.580;2022-11-15T09:28:50;15.30;98.30
11246;DHT22;59870;50.106;8.580;2022-11-15T09:31:36;15.70;98.10
11246;DHT22;59870;50.106;8.580;2022-11-15T09:34:22;15.40;98.00
11246;DHT22;59870;50.106;8.580;2022-11-15T09:37:08;15.40;97.80
11246;DHT22;59870;50.106;8.580;2022-11-15T09:39:54;15.40;97.80
11246;DHT22;59870;50.106;8.580;2022-11-15T09:42:58;15.50;98.00
11246;DHT22;59870;50.106;8.580;2022-11-15T09:48:57;15.60;97.90
11246;DHT22;59870;50.106;8.580;2022-11-15T09:51:43;15.70;97.60
11246;DHT22;59870;50.106;8.580;2022-11-15T10:03:12;16.10;97.80
11246;DHT22;59870;50.106;8.580;2022-11-15T10:05:46;16.20;97.70
11246;DHT22;59870;50.106;8.580;2022-11-15T10:10:51;16.40;97.60
11246;DHT22;59870;50.106;8.580;2022-11-15T10:13:45;16.70;97.40
11246;DHT22;59870;50.106;8.580;2022-11-15T10:19:38;16.70;96.40
11246;DHT22;59870;50.106;8.580;2022-11-15T10:24:50;16.90;96.30
11246;DHT22;59870;50.106;8.580;2022-11-15T10:27:19;16.90;96.60
11246;DHT22;59870;50.106;8.580;2022-11-15T10:29:49;17.20;96.50
11246;DHT22;59870;50.106;8.580;2022-11-15T10:32:19;17.10;95.90
11246;DHT22;59870;50.106;8.580;2022-11-15T10:34:48;17.20;95.90
11246;DHT22;59870;50.106;8.580;2022-11-15T10:37:30;17.20;95.70
11246;DHT22;59870;50.106;8.580;2022-11-15T10:40:14;17.30;95.80
11246;DHT22;59870;50.106;8.580;2022-11-15T10:42:42;17.30;95.50
11246;DHT22;59870;50.106;8.580;2022-11-15T10:45:27;17.40;95.30
11246;DHT22;59870;50.106;8.580;2022-11-15T10:50:46;17.40;95.40
11246;DHT22;59870;50.106;8.580;2022-11-15T10:53:40;17.40;95.40
11246;DHT22;59870;50.106;8.580;2022-11-15T10:56:12;17.40;95.50
11246;DHT22;59870;50.106;8.580;2022-11-15T10:58:44;17.50;95.40
11246;DHT22;59870;50.106;8.580;2022-11-15T11:01:19;17.50;95.50
11246;DHT22;59870;50.106;8.580;2022-11-15T11:04:05;17.50;95.70
11246;DHT22;59870;50.106;8.580;2022-11-15T11:06:57;17.60;96.00
11246;DHT22;59870;50.106;8.580;2022-11-15T11:09:39;17.60;95.90
11246;DHT22;59870;50.106;8.580;2022-11-15T11:12:12;17.60;95.80
11246;DHT22;59870;50.106;8.580;2022-11-15T11:14:39;18.00;95.90
11246;DHT22;59870;50.106;8.580;2022-11-15T11:36:56;17.70;94.40
11246;DHT22;59870;50.106;8.580;2022-11-15T11:48:12;17.50;94.70
11246;DHT22;59870;50.106;8.580;2022-11-15T11:50:42;17.50;94.80
11246;DHT22;59870;50.106;8.580;2022-11-15T11:53:39;17.50;94.40
11246;DHT22;59870;50.106;8.580;2022-11-15T11:56:27;17.40;94.90
11246;DHT22;59870;50.106;8.580;2022-11-15T11:59:05;17.50;94.70
11246;DHT22;59870;50.106;8.580;2022-11-15T12:01:41;17.50;94.60
11246;DHT22;59870;50.106;8.580;2022-11-15T12:07:08;17.50;95.00
11246;DHT22;59870;50.106;8.580;2022-11-15T12:09:59;17.60;94.90
11246;DHT22;59870;50.106;8.580;2022-11-15T12:17:38;17.70;94.70
11246;DHT22;59870;50.106;8.580;2022-11-15T12:22:55;17.70;94.60
11246;DHT22;59870;50.106;8.580;2022-11-15T12:25:47;17.80;94.70
11246;DHT22;59870;50.106;8.580;2022-11-15T12:28:20;17.80;94.70
11246;DHT22;59870;50.106;8.580;2022-11-15T12:31:04;17.80;94.60
11246;DHT22;59870;50.106;8.580;2022-11-15T12:33:47;17.90;94.80
11246;DHT22;59870;50.106;8.580;2022-11-15T12:38:59;17.90;94.50
11246;DHT22;59870;50.106;8.580;2022-11-15T12:41:29;17.90;94.70
11246;DHT22;59870;50.106;8.580;2022-11-15T12:43:57;18.10;94.60
11246;DHT22;59870;50.106;8.580;2022-11-15T12:59:53;18.00;94.60
11246;DHT22;59870;50.106;8.580;2022-11-15T13:02:24;18.00;94.50
11246;DHT22;59870;50.106;8.580;2022-11-15T13:04:55;18.40;94.60
11246;DHT22;59870;50.106;8.580;2022-11-15T13:17:47;18.50;95.00
11246;DHT22;59870;50.106;8.580;2022-11-15T13:22:44;18.30;94.80
11246;DHT22;59870;50.106;8.580;2022-11-15T13:27:48;18.10;95.30
11246;DHT22;59870;50.106;8.580;2022-11-15T13:30:27;18.10;94.80
11246;DHT22;59870;50.106;8.580;2022-11-15T13:32:55;18.20;94.80
11246;DHT22;59870;50.106;8.580;2022-11-15T13:35:27;18.20;94.50
11246;DHT22;59870;50.106;8.580;2022-11-15T13:37:56;18.10;94.90
11246;DHT22;59870;50.106;8.580;2022-11-15T13:40:34;18.10;94.80
11246;DHT22;59870;50.106;8.580;2022-11-15T13:46:09;18.10;94.90
11246;DHT22;59870;50.106;8.580;2022-11-15T13:48:38;18.10;95.00
11246;DHT22;59870;50.106;8.580;2022-11-15T13:51:17;18.20;94.40
11246;DHT22;59870;50.106;8.580;2022-11-15T13:53:57;18.10;94.60
11246;DHT22;59870;50.106;8.580;2022-11-15T13:56:27;18.10;94.70
11246;DHT22;59870;50.106;8.580;2022-11-15T13:58:55;18.10;94.40
11246;DHT22;59870;50.106;8.580;2022-11-15T14:01:26;18.10;94.60
11246;DHT22;59870;50.106;8.580;2022-11-15T14:03:58;18.10;94.40
11246;DHT22;59870;50.106;8.580;2022-11-15T14:06:28;18.10;94.70
11246;DHT22;59870;50.106;8.580;2022-11-15T14:11:48;18.10;94.80
11246;DHT22;59870;50.106;8.580;2022-11-15T14:14:16;18.10;95.00
11246;DHT22;59870;50.106;8.580;2022-11-15T14:16:49;18.10;95.20
11246;DHT22;59870;50.106;8.580;2022-11-15T14:22:19;18.40;95.40
11246;DHT22;59870;50.106;8.580;2022-11-15T14:27:44;18.10;95.20
11246;DHT22;59870;50.106;8.580;2022-11-15T14:30:13;18.10;95.10
11246;DHT22;59870;50.106;8.580;2022-11-15T14:32:48;18.10;95.00
11246;DHT22;59870;50.106;8.580;2022-11-15T14:35:20;18.40;95.20
11246;DHT22;59870;50.106;8.580;2022-11-15T14:37:48;18.20;95.10
11246;DHT22;59870;50.106;8.580;2022-11-15T14:40:21;18.00;95.10
11246;DHT22;59870;50.106;8.580;2022-11-15T14:42:49;18.00;95.00
11246;DHT22;59870;50.106;8.580;2022-11-15T14:45:19;18.00;95.10
11246;DHT22;59870;50.106;8.580;2022-11-15T14:47:47;18.00;95.20
11246;DHT22;59870;50.106;8.580;2022-11-15T14:50:17;18.00;95.20
11246;DHT22;59870;50.106;8.580;2022-11-15T14:52:46;18.30;95.70
11246;DHT22;59870;50.106;8.580;2022-11-15T14:55:23;18.00;95.50
11246;DHT22;59870;50.106;8.580;2022-11-15T14:57:51;18.00;95.20
11246;DHT22;59870;50.106;8.580;2022-11-15T15:00:19;17.90;95.10
11246;DHT22;59870;50.106;8.580;2022-11-15T15:02:48;18.00;95.30
11246;DHT22;59870;50.106;8.580;2022-11-15T15:05:22;18.10;95.30
11246;DHT22;59870;50.106;8.580;2022-11-15T15:07:51;17.90;95.50
11246;DHT22;59870;50.106;8.580;2022-11-15T15:10:20;18.10;95.60
11246;DHT22;59870;50.106;8.580;2022-11-15T15:13:18;17.90;95.50
11246;DHT22;59870;50.106;8.580;2022-11-15T15:15:47;17.90;95.50
11246;DHT22;59870;50.106;8.580;2022-11-15T15:18:15;18.20;95.60
11246;DHT22;59870;50.106;8.580;2022-11-15T15:20:44;17.80;95.70
11246;DHT22;59870;50.106;8.580;2022-11-15T15:23:18;17.90;95.90
11246;DHT22;59870;50.106;8.580;2022-11-15T15:25:47;17.80;96.10
11246;DHT22;59870;50.106;8.580;2022-11-15T15:28:16;17.80;95.90
11246;DHT22;59870;50.106;8.580;2022-11-15T15:30:43;17.70;95.90
11246;DHT22;59870;50.106;8.580;2022-11-15T15:33:11;17.80;95.90
11246;DHT22;59870;50.106;8.580;2022-11-15T15:35:38;17.70;96.00
11246;DHT22;59870;50.106;8.580;2022-11-15T15:38:06;17.70;96.00
11246;DHT22;59870;50.106;8.580;2022-11-15T15:40:35;17.70;95.90
11246;DHT22;59870;50.106;8.580;2022-11-15T15:43:03;17.70;95.70
11246;DHT22;59870;50.106;8.580;2022-11-15T15:45:30;17.60;95.70
11246;DHT22;59870;50.106;8.580;2022-11-15T15:47:59;17.60;95.80
11246;DHT22;59870;50.106;8.580;2022-11-15T15:50:28;17.60;95.80
11246;DHT22;59870;50.106;8.580;2022-11-15T15:52:58;17.90;95.80
11246;DHT22;59870;50.106;8.580;2022-11-15T15:55:26;17.70;95.70
11246;DHT22;59870;50.106;8.580;2022-11-15T15:57:54;17.40;95.70
11246;DHT22;59870;50.106;8.580;2022-11-15T16:00:23;17.40;95.80
11246;DHT22;59870;50.106;8.580;2022-11-15T16:02:52;17.40;95.80
11246;DHT22;59870;50.106;8.580;2022-11-15T16:05:20;17.30;95.90
11246;DHT22;59870;50.106;8.580;2022-11-15T16:07:48;17.30;96.00
11246;DHT22;59870;50.106;8.580;2022-11-15T16:10:22;17.30;96.00
11246;DHT22;59870;50.106;8.580;2022-11-15T16:12:53;17.20;96.10
11246;DHT22;59870;50.106;8.580;2022-11-15T16:15:22;17.60;96.10
11246;DHT22;59870;50.106;8.580;2022-11-15T16:17:57;17.20;95.90
11246;DHT22;59870;50.106;8.580;2022-11-15T16:20:33;17.20;96.10
11246;DHT22;59870;50.106;8.580;2022-11-15T16:23:03;17.20;96.10
11246;DHT22;59870;50.106;8.580;2022-11-15T16:25:50;17.10;96.10
11246;DHT22;59870;50.106;8.580;2022-11-15T16:28:38;17.10;96.10
11246;DHT22;59870;50.106;8.580;2022-11-15T16:31:11;17.00;96.10
11246;DHT22;59870;50.106;8.580;2022-11-15T16:33:39;17.10;96.00
11246;DHT22;59870;50.106;8.580;2022-11-15T16:36:22;17.00;96.00
11246;DHT22;59870;50.106;8.580;2022-11-15T16:38:57;17.00;96.00
11246;DHT22;59870;50.106;8.580;2022-11-15T16:41:25;17.20;96.10
11246;DHT22;59870;50.106;8.580;2022-11-15T16:43:53;17.00;96.10
11246;DHT22;59870;50.106;8.580;2022-11-15T16:46:26;17.00;96.20
11246;DHT22;59870;50.106;8.580;2022-11-15T16:48:54;16.90;96.10
11246;DHT22;59870;50.106;8.580;2022-11-15T16:51:22;16.90;96.20
11246;DHT22;59870;50.106;8.580;2022-11-15T16:53:50;16.90;96.10
11246;DHT22;59870;50.106;8.580;2022-11-15T16:56:27;16.90;96.10
11246;DHT22;59870;50.106;8.580;2022-11-15T16:58:56;16.90;96.20
11246;DHT22;59870;50.106;8.580;2022-11-15T17:01:29;16.90;96.20
11246;DHT22;59870;50.106;8.580;2022-11-15T17:03:58;16.80;96.20
11246;DHT22;59870;50.106;8.580;2022-11-15T17:06:25;16.80;96.20
11246;DHT22;59870;50.106;8.580;2022-11-15T17:08:53;16.80;96.20
11246;DHT22;59870;50.106;8.580;2022-11-15T17:11:21;16.80;96.20
11246;DHT22;59870;50.106;8.580;2022-11-15T17:13:49;16.80;96.50
11246;DHT22;59870;50.106;8.580;2022-11-15T17:16:17;16.80;96.20
11246;DHT22;59870;50.106;8.580;2022-11-15T17:18:48;16.70;96.20
11246;DHT22;59870;50.106;8.580;2022-11-15T17:21:20;16.70;96.30
11246;DHT22;59870;50.106;8.580;2022-11-15T17:23:48;16.70;96.40
11246;DHT22;59870;50.106;8.580;2022-11-15T17:26:16;16.70;96.30
11246;DHT22;59870;50.106;8.580;2022-11-15T17:28:56;16.70;96.30
11246;DHT22;59870;50.106;8.580;2022-11-15T17:31:25;16.70;96.40
11246;DHT22;59870;50.106;8.580;2022-11-15T17:33:53;16.70;96.30
11246;DHT22;59870;50.106;8.580;2022-11-15T17:36:20;16.60;96.30
11246;DHT22;59870;50.106;8.580;2022-11-15T17:38:48;16.60;96.30
11246;DHT22;59870;50.106;8.580;2022-11-15T17:41:25;16.70;96.40
11246;DHT22;59870;50.106;8.580;2022-11-15T17:43:55;16.60;96.40
11246;DHT22;59870;50.106;8.580;2022-11-15T17:46:25;16.60;96.60
11246;DHT22;59870;50.106;8.580;2022-11-15T17:48:54;17.00;96.70
11246;DHT22;59870;50.106;8.580;2022-11-15T17:51:22;16.60;96.50
11246;DHT22;59870;50.106;8.580;2022-11-15T17:53:50;16.60;96.50
11246;DHT22;59870;50.106;8.580;2022-11-15T17:56:20;16.50;96.50
11246;DHT22;59870;50.106;8.580;2022-11-15T17:58:53;16.50;96.50
11246;DHT22;59870;50.106;8.580;2022-11-15T18:01:25;16.50;96.50
11246;DHT22;59870;50.106;8.580;2022-11-15T18:03:53;16.50;96.50
11246;DHT22;59870;50.106;8.580;2022-11-15T18:06:23;16.50;96.50
11246;DHT22;59870;50.106;8.580;2022-11-15T18:08:52;16.50;96.60
11246;DHT22;59870;50.106;8.580;2022-11-15T18:11:30;16.50;96.60
11246;DHT22;59870;50.106;8.580;2022-11-15T18:14:01;16.50;96.50
11246;DHT22;59870;50.106;8.580;2022-11-15T18:16:31;16.50;96.50
11246;DHT22;59870;50.106;8.580;2022-11-15T18:18:59;16.50;96.40
11246;DHT22;59870;50.106;8.580;2022-11-15T18:21:29;16.50;96.50
11246;DHT22;59870;50.106;8.580;2022-11-15T18:23:59;16.40;96.40
11246;DHT22;59870;50.106;8.580;2022-11-15T18:26:28;16.40;96.50
11246;DHT22;59870;50.106;8.580;2022-11-15T18:29:01;16.40;96.50
11246;DHT22;59870;50.106;8.580;2022-11-15T18:31:29;16.40;96.50
11246;DHT22;59870;50.106;8.580;2022-11-15T18:33:58;16.40;96.60
11246;DHT22;59870;50.106;8.580;2022-11-15T18:36:28;16.40;96.60
11246;DHT22;59870;50.106;8.580;2022-11-15T18:38:57;16.40;96.70
11246;DHT22;59870;50.106;8.580;2022-11-15T18:41:25;16.40;96.70
11246;DHT22;59870;50.106;8.580;2022-11-15T18:43:58;16.40;96.60
11246;DHT22;59870;50.106;8.580;2022-11-15T18:46:29;16.50;96.40
11246;DHT22;59870;50.106;8.580;2022-11-15T18:48:58;16.40;96.30
11246;DHT22;59870;50.106;8.580;2022-11-15T18:51:28;16.40;96.30
11246;DHT22;59870;50.106;8.580;2022-11-15T18:53:58;16.60;96.30
11246;DHT22;59870;50.106;8.580;2022-11-15T18:56:27;16.40;96.10
11246;DHT22;59870;50.106;8.580;2022-11-15T18:58:57;16.50;96.20
11246;DHT22;59870;50.106;8.580;2022-11-15T19:01:27;16.80;96.30
11246;DHT22;59870;50.106;8.580;2022-11-15T19:03:56;16.50;96.00
11246;DHT22;59870;50.106;8.580;2022-11-15T19:06:27;16.40;95.80
11246;DHT22;59870;50.106;8.580;2022-11-15T19:08:57;16.40;95.90